createdAt,value
2022-10-02T00:00:40.494Z,95320.22
2022-10-02T00:03:16.143Z,95277.13
2022-10-02T00:05:49.381Z,95165.28
2022-10-02T00:08:27.397Z,95188.69
2022-10-02T00:11:03.543Z,95424.56
2022-10-02T00:13:54.304Z,95435.44
2022-10-02T00:16:34.929Z,95436.56
2022-10-02T00:19:03.034Z,95315.84
2022-10-02T00:21:52.957Z,95427.13
2022-10-02T00:24:26.311Z,95440.66
2022-10-02T00:27:01.210Z,95443.00
2022-10-02T00:29:31.308Z,95442.25
2022-10-02T00:32:04.436Z,95443.25
2022-10-02T00:34:45.156Z,95441.56
2022-10-02T00:37:28.514Z,95443.97
2022-10-02T00:40:22.068Z,95432.94
2022-10-02T00:42:59.515Z,95441.09
2022-10-02T00:45:29.102Z,95444.44
2022-10-02T00:48:17.976Z,95467.22
2022-10-02T00:51:22.272Z,95443.03
2022-10-02T00:53:52.048Z,95440.97
2022-10-02T00:56:30.965Z,95318.94
2022-10-02T00:59:24.588Z,95291.31
2022-10-02T01:01:51.348Z,95455.56
2022-10-02T01:04:29.395Z,95320.88
2022-10-02T01:06:56.846Z,95444.31
2022-10-02T01:09:24.909Z,95295.50
2022-10-02T01:11:52.871Z,95279.72
2022-10-02T01:14:19.673Z,95347.91
2022-10-02T01:16:47.119Z,95336.88
2022-10-02T01:19:29.648Z,95463.81
2022-10-02T01:22:55.069Z,95454.63
2022-10-02T01:25:22.007Z,95275.13
2022-10-02T01:27:50.530Z,95456.03
2022-10-02T01:30:19.753Z,95423.06
2022-10-02T01:32:55.317Z,95345.25
2022-10-02T01:35:26.232Z,95465.00
2022-10-02T01:37:55.407Z,95347.53
2022-10-02T01:40:35.416Z,95469.69
2022-10-02T01:43:19.475Z,95364.00
2022-10-02T01:46:01.276Z,95469.28
2022-10-02T01:48:30.832Z,95474.41
2022-10-02T01:51:35.170Z,95469.03
2022-10-02T01:54:16.719Z,95475.00
2022-10-02T01:57:30.530Z,95464.25
2022-10-02T02:00:08.492Z,95463.06
2022-10-02T02:03:17.129Z,95470.16
2022-10-02T02:06:08.406Z,95474.53
2022-10-02T02:08:46.811Z,95478.19
2022-10-02T02:11:15.056Z,95482.03
2022-10-02T02:13:49.729Z,95297.19
2022-10-02T02:16:22.506Z,95493.84
2022-10-02T02:19:20.470Z,95512.81
2022-10-02T02:22:01.250Z,95507.75
2022-10-02T02:24:41.566Z,95517.44
2022-10-02T02:27:14.973Z,95534.34
2022-10-02T02:29:45.367Z,95472.66
2022-10-02T02:32:18.354Z,95379.81
2022-10-02T02:34:50.324Z,95395.66
2022-10-02T02:37:22.820Z,95369.56
2022-10-02T02:39:57.989Z,95531.53
2022-10-02T02:42:30.927Z,95391.28
2022-10-02T02:45:07.049Z,95536.41
2022-10-02T02:47:46.175Z,95429.41
2022-10-02T02:50:20.308Z,95562.00
2022-10-02T02:53:16.554Z,95504.16
2022-10-02T02:56:13.186Z,95552.03
2022-10-02T02:58:46.070Z,95554.59
2022-10-02T03:01:13.001Z,95509.53
2022-10-02T03:03:39.975Z,95603.00
2022-10-02T03:06:26.808Z,95396.09
2022-10-02T03:08:54.970Z,95599.69
2022-10-02T03:12:12.208Z,95588.41
2022-10-02T03:14:48.886Z,95596.06
2022-10-02T03:17:31.411Z,95583.53
2022-10-02T03:20:25.151Z,95383.78
2022-10-02T03:23:14.512Z,95591.22
2022-10-02T03:25:58.271Z,95595.84
2022-10-02T03:28:54.952Z,95608.13
2022-10-02T03:31:27.334Z,95543.78
2022-10-02T03:33:55.276Z,95586.84
2022-10-02T03:36:22.941Z,95594.31
2022-10-02T03:39:12.572Z,95424.44
2022-10-02T03:41:39.134Z,95512.81
2022-10-02T03:44:06.248Z,95460.00
2022-10-02T03:46:33.434Z,95490.75
2022-10-02T03:49:00.412Z,95535.03
2022-10-02T03:51:27.378Z,95447.19
2022-10-02T03:53:54.207Z,95531.47
2022-10-02T03:56:26.897Z,95648.63
2022-10-02T03:58:57.856Z,95680.94
2022-10-02T04:01:29.508Z,95668.13
2022-10-02T04:04:01.594Z,95664.75
2022-10-02T04:06:51.773Z,95666.78
2022-10-02T04:09:18.718Z,95681.13
2022-10-02T04:11:53.970Z,95653.94
2022-10-02T04:14:31.860Z,95526.22
2022-10-02T04:17:33.772Z,95687.75
2022-10-02T04:20:09.930Z,95561.53
2022-10-02T04:22:45.573Z,95701.09
2022-10-02T04:25:24.876Z,95690.84
2022-10-02T04:27:57.383Z,95694.94
2022-10-02T04:30:25.250Z,95719.00
2022-10-02T04:32:52.793Z,95709.78
2022-10-02T04:35:22.380Z,95708.00
2022-10-02T04:38:07.932Z,95717.72
2022-10-02T04:40:43.568Z,95722.06
2022-10-02T04:43:33.223Z,95604.72
2022-10-02T04:46:21.857Z,95726.41
2022-10-02T04:49:06.760Z,95727.97
2022-10-02T04:51:36.229Z,95736.94
2022-10-02T04:54:24.496Z,95740.78
2022-10-02T04:57:09.786Z,95735.69
2022-10-02T04:59:57.708Z,95746.16
2022-10-02T05:02:53.550Z,95741.31
2022-10-02T05:05:37.542Z,95742.34
2022-10-02T05:08:23.126Z,95747.75
2022-10-02T05:11:11.470Z,95758.81
2022-10-02T05:13:56.669Z,95761.63
2022-10-02T05:16:48.050Z,95757.78
2022-10-02T05:19:20.556Z,95760.34
2022-10-02T05:22:25.636Z,95751.91
2022-10-02T05:25:26.914Z,95761.13
2022-10-02T05:28:21.562Z,95758.59
2022-10-02T05:31:01.812Z,95759.31
2022-10-02T05:33:36.647Z,95788.84
2022-10-02T05:36:19.989Z,95653.44
2022-10-02T05:39:08.135Z,95786.56
2022-10-02T05:41:52.848Z,95782.97
2022-10-02T05:44:24.130Z,95659.91
2022-10-02T05:46:57.959Z,95670.16
2022-10-02T05:49:35.232Z,95740.41
2022-10-02T05:52:19.995Z,95801.41
2022-10-02T05:54:59.687Z,95667.59
2022-10-02T05:57:39.313Z,95790.63
2022-10-02T06:00:25.824Z,95763.69
2022-10-02T06:03:25.170Z,95784.69
2022-10-02T06:05:59.262Z,95795.72
2022-10-02T06:08:34.537Z,95658.84
2022-10-02T06:11:08.880Z,95797.50
2022-10-02T06:14:00.822Z,95808.25
2022-10-02T06:16:36.303Z,95686.78
2022-10-02T06:19:12.894Z,95781.06
2022-10-02T06:21:49.611Z,95815.44
2022-10-02T06:24:29.548Z,95836.94
2022-10-02T06:27:13.397Z,95832.06
2022-10-02T06:29:45.945Z,95710.34
2022-10-02T06:32:33.095Z,95755.47
2022-10-02T06:35:00.770Z,95836.22
2022-10-02T06:37:30.543Z,95846.88
2022-10-02T06:40:00.139Z,95848.06
2022-10-02T06:43:13.315Z,95846.56
2022-10-02T06:45:59.593Z,95850.50
2022-10-02T06:48:41.590Z,95866.16
2022-10-02T06:51:30.388Z,95864.00
2022-10-02T06:54:09.454Z,95901.72
2022-10-02T06:56:54.636Z,95869.28
2022-10-02T06:59:49.069Z,95880.56
2022-10-02T07:02:54.375Z,95876.19
2022-10-02T07:05:47.637Z,95875.38
2022-10-02T07:08:25.509Z,95779.50
2022-10-02T07:11:09.836Z,95889.81
2022-10-02T07:13:51.991Z,95884.34
2022-10-02T07:16:56.976Z,95884.22
2022-10-02T07:19:42.097Z,95882.00
2022-10-02T07:22:43.447Z,95884.34
2022-10-02T07:25:40.128Z,95893.34
2022-10-02T07:28:28.744Z,95900.75
2022-10-02T07:31:37.075Z,95903.09
2022-10-02T07:34:41.326Z,95887.47
2022-10-02T07:37:40.635Z,95924.44
2022-10-02T07:40:25.577Z,95931.25
2022-10-02T07:43:02.733Z,95933.19
2022-10-02T07:45:37.558Z,95842.66
2022-10-02T07:48:22.822Z,95933.44
2022-10-02T07:51:20.418Z,95948.09
2022-10-02T07:53:56.655Z,95782.25
2022-10-02T07:56:24.129Z,95930.06
2022-10-02T07:59:06.493Z,95787.59
2022-10-02T08:01:37.191Z,95954.25
2022-10-02T08:04:24.629Z,95962.72
2022-10-02T08:06:58.128Z,95850.06
2022-10-02T08:09:37.779Z,95966.97
2022-10-02T08:12:22.474Z,95941.91
2022-10-02T08:14:53.704Z,95922.00
2022-10-02T08:17:33.404Z,95782.34
2022-10-02T08:20:17.853Z,95839.38
2022-10-02T08:22:51.393Z,95853.75
2022-10-02T08:25:39.788Z,95938.44
2022-10-02T08:28:30.577Z,95959.69
2022-10-02T08:30:58.733Z,95827.38
2022-10-02T08:33:25.430Z,95821.44
2022-10-02T08:36:13.899Z,95936.25
2022-10-02T08:38:46.583Z,95939.28
2022-10-02T08:41:35.092Z,95922.66
2022-10-02T08:44:26.344Z,95923.03
2022-10-02T08:47:16.013Z,95812.97
2022-10-02T08:50:20.261Z,95916.31
2022-10-02T08:52:58.768Z,95915.06
2022-10-02T08:55:54.767Z,95917.66
2022-10-02T08:58:47.669Z,95932.19
2022-10-02T09:01:39.200Z,95918.63
2022-10-02T09:04:39.887Z,95924.31
2022-10-02T09:07:31.653Z,95911.28
2022-10-02T09:10:10.654Z,95925.78
2022-10-02T09:13:14.914Z,95925.25
2022-10-02T09:15:48.219Z,95904.19
2022-10-02T09:18:20.772Z,95915.97
2022-10-02T09:21:11.554Z,95818.03
2022-10-02T09:24:00.106Z,95911.19
2022-10-02T09:26:40.713Z,95918.63
2022-10-02T09:29:26.170Z,95916.38
2022-10-02T09:32:19.312Z,95920.28
2022-10-02T09:34:48.972Z,95909.09
2022-10-02T09:37:36.052Z,95799.69
2022-10-02T09:40:26.986Z,95901.84
2022-10-02T09:43:35.712Z,95914.56
2022-10-02T09:46:34.993Z,95911.06
2022-10-02T09:49:26.893Z,95913.94
2022-10-02T09:52:26.972Z,95912.69
2022-10-02T09:55:22.773Z,95921.28
2022-10-02T09:58:17.153Z,95924.28
2022-10-02T10:01:02.328Z,95918.09
2022-10-02T10:03:45.463Z,95920.19
2022-10-02T10:06:34.691Z,95916.69
2022-10-02T10:09:24.892Z,95943.16
2022-10-02T10:12:34.811Z,95918.97
2022-10-02T10:15:09.173Z,95913.94
2022-10-02T10:17:54.645Z,95922.03
2022-10-02T10:21:11.933Z,95811.88
2022-10-02T10:23:54.013Z,95790.44
2022-10-02T10:27:06.213Z,95930.50
2022-10-02T10:29:54.209Z,95918.47
2022-10-02T10:32:48.068Z,95908.69
2022-10-02T10:35:46.383Z,95912.50
2022-10-02T10:38:43.029Z,95924.31
2022-10-02T10:41:10.051Z,95900.78
2022-10-02T10:43:57.438Z,95888.81
2022-10-02T10:46:48.810Z,95884.66
2022-10-02T10:50:03.528Z,95884.00
2022-10-02T10:52:36.232Z,95886.63
2022-10-02T10:55:17.420Z,95881.59
2022-10-02T10:58:00.509Z,95745.78
2022-10-02T11:01:01.992Z,95892.13
2022-10-02T11:03:47.051Z,95895.00
2022-10-02T11:06:32.347Z,95884.59
2022-10-02T11:09:26.596Z,95892.22
2022-10-02T11:12:30.008Z,95904.22
2022-10-02T11:15:15.309Z,95884.91
2022-10-02T11:18:18.965Z,95874.06
2022-10-02T11:21:10.451Z,95871.31
2022-10-02T11:23:53.479Z,95866.94
2022-10-02T11:27:00.196Z,95878.38
2022-10-02T11:29:29.634Z,95857.22
2022-10-02T11:32:14.010Z,95658.25
2022-10-02T11:35:14.670Z,95724.09
2022-10-02T11:38:04.232Z,95757.53
2022-10-02T11:41:07.616Z,95859.25
2022-10-02T11:43:48.114Z,95779.41
2022-10-02T11:46:24.183Z,95711.72
2022-10-02T11:48:56.797Z,95856.63
2022-10-02T11:51:37.608Z,95858.13
2022-10-02T11:54:37.692Z,95737.94
2022-10-02T11:57:24.326Z,95861.47
2022-10-02T12:00:26.716Z,95755.47
2022-10-02T12:02:56.163Z,95862.72
2022-10-02T12:05:35.252Z,95764.25
2022-10-02T12:08:17.275Z,95656.97
2022-10-02T12:11:11.014Z,95748.69
2022-10-02T12:14:08.105Z,95864.66
2022-10-02T12:16:53.041Z,95841.81
2022-10-02T12:19:26.836Z,95864.44
2022-10-02T12:22:04.593Z,95857.97
2022-10-02T12:24:46.413Z,95861.91
2022-10-02T12:27:31.453Z,95885.09
2022-10-02T12:30:19.550Z,95878.75
2022-10-02T12:33:09.585Z,95900.25
2022-10-02T12:36:02.097Z,95867.75
2022-10-02T12:39:02.526Z,95864.91
2022-10-02T12:41:51.219Z,95867.50
2022-10-02T12:44:46.995Z,95701.13
2022-10-02T12:47:46.886Z,95860.31
2022-10-02T12:50:29.573Z,95861.59
2022-10-02T12:53:05.354Z,95867.94
2022-10-02T12:55:53.650Z,95862.91
2022-10-02T12:58:29.710Z,95848.09
2022-10-02T13:01:05.658Z,95857.72
2022-10-02T13:03:35.333Z,95860.56
2022-10-02T13:06:20.664Z,95864.47
2022-10-02T13:09:02.459Z,95867.59
2022-10-02T13:11:51.389Z,95845.84
2022-10-02T13:14:41.633Z,95876.78
2022-10-02T13:17:17.511Z,95885.16
2022-10-02T13:20:00.142Z,95894.75
2022-10-02T13:22:50.016Z,95789.09
2022-10-02T13:25:28.939Z,95891.56
2022-10-02T13:28:07.938Z,95764.81
2022-10-02T13:30:43.595Z,95770.16
2022-10-02T13:33:31.966Z,95886.41
2022-10-02T13:36:16.873Z,95897.84
2022-10-02T13:38:58.605Z,95903.72
2022-10-02T13:41:37.940Z,95902.69
2022-10-02T13:44:21.772Z,95711.59
2022-10-02T13:47:22.570Z,95909.56
2022-10-02T13:50:14.110Z,95913.19
2022-10-02T13:53:01.917Z,95902.28
2022-10-02T13:55:34.332Z,95846.16
2022-10-02T13:58:27.694Z,95885.34
2022-10-02T14:01:07.181Z,95878.75
2022-10-02T14:03:36.917Z,95871.31
2022-10-02T14:06:23.969Z,95773.91
2022-10-02T14:09:16.109Z,95756.31
2022-10-02T14:11:46.114Z,95863.34
2022-10-02T14:14:24.914Z,95865.00
2022-10-02T14:17:18.828Z,95797.72
2022-10-02T14:20:04.932Z,95603.50
2022-10-02T14:22:40.928Z,95735.94
2022-10-02T14:25:27.872Z,95866.38
2022-10-02T14:28:09.317Z,95858.50
2022-10-02T14:30:54.370Z,95855.06
2022-10-02T14:33:36.012Z,95856.69
2022-10-02T14:36:05.695Z,95847.09
2022-10-02T14:38:59.650Z,95844.94
2022-10-02T14:41:53.903Z,95845.00
2022-10-02T14:44:50.855Z,95726.00
2022-10-02T14:47:41.629Z,95839.28
2022-10-02T14:50:27.220Z,95836.38
2022-10-02T14:53:35.029Z,95739.03
2022-10-02T14:56:19.871Z,95832.47
2022-10-02T14:59:15.471Z,95845.88
2022-10-02T15:02:07.103Z,95833.78
2022-10-02T15:05:02.284Z,95831.16
2022-10-02T15:07:34.834Z,95719.78
2022-10-02T15:10:13.628Z,95830.63
2022-10-02T15:12:44.585Z,95839.63
2022-10-02T15:15:20.555Z,95714.25
2022-10-02T15:18:16.034Z,95829.94
2022-10-02T15:21:18.647Z,95837.69
2022-10-02T15:23:51.574Z,95740.22
2022-10-02T15:26:28.747Z,95842.50
2022-10-02T15:29:08.103Z,95854.25
2022-10-02T15:32:03.507Z,95672.41
2022-10-02T15:35:14.886Z,95843.09
2022-10-02T15:38:12.135Z,95843.66
2022-10-02T15:40:47.105Z,95860.44
2022-10-02T15:43:16.794Z,95853.25
2022-10-02T15:45:58.717Z,95850.09
2022-10-02T15:48:52.742Z,95707.78
2022-10-02T15:51:29.551Z,95724.88
2022-10-02T15:54:17.098Z,95858.16
2022-10-02T15:57:06.074Z,95850.00
2022-10-02T15:59:38.700Z,95851.59
2022-10-02T16:02:33.374Z,95848.25
2022-10-02T16:05:38.932Z,95842.47
2022-10-02T16:08:14.404Z,95842.81
2022-10-02T16:11:03.579Z,95851.03
2022-10-02T16:13:47.220Z,95846.91
2022-10-02T16:16:29.467Z,95846.94
2022-10-02T16:19:17.951Z,95592.63
2022-10-02T16:22:17.765Z,95842.84
2022-10-02T16:25:00.449Z,95843.78
2022-10-02T16:27:51.830Z,95844.66
2022-10-02T16:30:22.050Z,95836.75
2022-10-02T16:33:07.975Z,95838.41
2022-10-02T16:35:43.729Z,95848.50
2022-10-02T16:38:38.153Z,95840.81
2022-10-02T16:41:20.386Z,95689.06
2022-10-02T16:43:59.452Z,95850.25
2022-10-02T16:46:36.422Z,95686.41
2022-10-02T16:49:43.166Z,95845.69
2022-10-02T16:52:41.344Z,95762.56
2022-10-02T16:55:35.430Z,95858.53
2022-10-02T16:58:27.422Z,95854.56
2022-10-02T17:01:06.258Z,95848.44
2022-10-02T17:04:04.933Z,95823.94
2022-10-02T17:06:39.580Z,95850.06
2022-10-02T17:09:27.168Z,95696.06
2022-10-02T17:12:13.388Z,95884.81
2022-10-02T17:15:04.104Z,95878.69
2022-10-02T17:17:51.131Z,95857.38
2022-10-02T17:20:22.733Z,95854.81
2022-10-02T17:23:01.790Z,95881.50
2022-10-02T17:25:43.970Z,95857.84
2022-10-02T17:28:16.737Z,95861.19
2022-10-02T17:31:00.924Z,95689.63
2022-10-02T17:33:44.289Z,95857.84
2022-10-02T17:36:22.805Z,95743.47
2022-10-02T17:39:06.071Z,95703.47
2022-10-02T17:42:19.099Z,95853.72
2022-10-02T17:45:01.226Z,95857.59
2022-10-02T17:47:42.365Z,95705.03
2022-10-02T17:50:51.564Z,95858.59
2022-10-02T17:53:44.555Z,95823.75
2022-10-02T17:56:39.794Z,95858.38
2022-10-02T17:59:28.103Z,95851.44
2022-10-02T18:02:27.295Z,95815.53
2022-10-02T18:05:16.828Z,95854.78
2022-10-02T18:07:43.626Z,95850.16
2022-10-02T18:10:39.261Z,95869.94
2022-10-02T18:13:18.033Z,95852.72
2022-10-02T18:15:55.897Z,95859.44
2022-10-02T18:18:28.911Z,95856.09
2022-10-02T18:21:32.616Z,95856.34
2022-10-02T18:24:20.718Z,95850.69
2022-10-02T18:27:25.050Z,95844.03
2022-10-02T18:29:52.215Z,95849.88
2022-10-02T18:32:43.849Z,95848.09
2022-10-02T18:35:22.916Z,95849.38
2022-10-02T18:38:17.251Z,95841.44
2022-10-02T18:40:56.290Z,95849.09
2022-10-02T18:43:49.213Z,95829.63
2022-10-02T18:46:49.862Z,95677.66
2022-10-02T18:49:45.425Z,95720.47
2022-10-02T18:52:27.767Z,95839.09
2022-10-02T18:55:15.503Z,95839.59
2022-10-02T18:58:10.934Z,95698.59
2022-10-02T19:01:13.862Z,95756.91
2022-10-02T19:04:02.509Z,95834.50
2022-10-02T19:07:19.292Z,95295.16
2022-10-02T19:09:47.580Z,95482.22
2022-10-02T19:12:24.457Z,95320.56
2022-10-02T19:14:56.490Z,95890.34
2022-10-02T19:17:56.588Z,95489.28
2022-10-02T19:20:55.831Z,95837.97
2022-10-02T19:23:47.260Z,95882.84
2022-10-02T19:26:30.632Z,95461.63
2022-10-02T19:29:16.133Z,95439.34
2022-10-02T19:31:46.064Z,95497.84
2022-10-02T19:34:27.822Z,95846.56
2022-10-02T19:37:11.314Z,95428.81
2022-10-02T19:40:01.113Z,95613.56
2022-10-02T19:42:45.736Z,95285.41
2022-10-02T19:45:48.052Z,95229.03
2022-10-02T19:48:19.072Z,95296.88
2022-10-02T19:51:06.351Z,95493.34
2022-10-02T19:53:41.740Z,95475.66
2022-10-02T19:56:23.234Z,95439.00
2022-10-02T19:59:13.718Z,95288.50
2022-10-02T20:02:12.694Z,95873.81
2022-10-02T20:04:42.357Z,95570.09
2022-10-02T20:07:20.299Z,95289.25
2022-10-02T20:09:57.454Z,95318.13
2022-10-02T20:12:35.077Z,95814.50
2022-10-02T20:15:10.492Z,95171.97
2022-10-02T20:17:38.888Z,95261.34
2022-10-02T20:20:17.652Z,95535.97
2022-10-02T20:22:57.233Z,95832.09
2022-10-02T20:25:48.380Z,95690.31
2022-10-02T20:28:22.141Z,95132.47
2022-10-02T20:31:24.611Z,95466.25
2022-10-02T20:34:01.811Z,95461.09
2022-10-02T20:36:35.975Z,95491.06
2022-10-02T20:39:11.007Z,95430.38
2022-10-02T20:42:04.735Z,95457.84
2022-10-02T20:44:38.336Z,95679.97
2022-10-02T20:47:35.508Z,95808.31
2022-10-02T20:50:15.209Z,95588.41
2022-10-02T20:53:09.832Z,95801.19
2022-10-02T20:55:41.727Z,95797.31
2022-10-02T20:58:44.673Z,95222.56
2022-10-02T21:01:31.215Z,95821.03
2022-10-02T21:04:25.007Z,95709.31
2022-10-02T21:07:13.265Z,95804.53
2022-10-02T21:10:00.083Z,95796.88
2022-10-02T21:13:17.734Z,95184.53
2022-10-02T21:16:21.722Z,95797.88
2022-10-02T21:19:14.386Z,95822.41
2022-10-02T21:21:53.995Z,95701.22
2022-10-02T21:24:52.301Z,95797.28
2022-10-02T21:27:28.158Z,95786.28
2022-10-02T21:30:16.755Z,95800.47
2022-10-02T21:33:05.731Z,95802.88
2022-10-02T21:35:58.714Z,95706.00
2022-10-02T21:38:44.377Z,95793.94
2022-10-02T21:41:31.816Z,95789.75
2022-10-02T21:44:28.972Z,95564.06
2022-10-02T21:47:20.089Z,95806.34
2022-10-02T21:50:26.071Z,95326.88
2022-10-02T21:53:33.212Z,95788.75
2022-10-02T21:56:41.793Z,95114.53
2022-10-02T21:59:31.005Z,95783.41
2022-10-02T22:02:11.348Z,95778.94
2022-10-02T22:05:17.429Z,95783.91
2022-10-02T22:07:50.495Z,95785.25
2022-10-02T22:10:36.894Z,95648.44
2022-10-02T22:13:37.098Z,95663.00
2022-10-02T22:16:23.040Z,95510.16
2022-10-02T22:19:10.428Z,95769.53
2022-10-02T22:22:35.612Z,95538.41
2022-10-02T22:25:14.328Z,95761.94
2022-10-02T22:27:54.263Z,95682.53
2022-10-02T22:30:30.669Z,95128.38
2022-10-02T22:33:34.873Z,95761.88
2022-10-02T22:36:41.590Z,95385.28
2022-10-02T22:39:17.408Z,95748.25
2022-10-02T22:41:57.368Z,95350.88
2022-10-02T22:44:31.929Z,95399.63
2022-10-02T22:47:11.930Z,95106.47
2022-10-02T22:49:48.149Z,95157.41
2022-10-02T22:52:53.354Z,95753.31
2022-10-02T22:55:27.531Z,95157.44
2022-10-02T22:58:10.313Z,95746.06
2022-10-02T23:00:54.590Z,95706.53
2022-10-02T23:03:32.674Z,95486.44
2022-10-02T23:06:06.673Z,95534.16
2022-10-02T23:08:52.249Z,95192.09
2022-10-02T23:11:28.752Z,95725.34
2022-10-02T23:14:43.419Z,95781.28
2022-10-02T23:17:44.933Z,95731.31
2022-10-02T23:20:27.434Z,95439.81
2022-10-02T23:23:02.510Z,95745.59
2022-10-02T23:25:54.885Z,95498.69
2022-10-02T23:28:44.871Z,95488.47
2022-10-02T23:31:22.941Z,95717.94
2022-10-02T23:33:56.473Z,95377.91
2022-10-02T23:36:29.578Z,95358.44
2022-10-02T23:39:16.046Z,95154.69
2022-10-02T23:41:48.710Z,95740.19
2022-10-02T23:44:53.591Z,95188.19
2022-10-02T23:47:26.554Z,95719.72
2022-10-02T23:49:59.147Z,95297.81
2022-10-02T23:52:41.834Z,95364.94
2022-10-02T23:55:42.954Z,95470.16
2022-10-02T23:58:37.353Z,95694.41
